Orel, Russia
Current Conditions -  °F | °C
As of 9:00 AM on Sunday 21 Dec 2014 (Local Time) from UUBP Reporting Station
Overcast Overcast  
Wind Chill: 25°   Ceiling: 1000
Heat Index: 34°   Visibility: 6mi
Dew Point: 30°   Wind: 11mph
Humidity: 87%   Direction: 210°SSW
Pressure: 29.59"   Gusts: NA
Location:  52.99°N, 36.09°E
Report Text: UUBP 210600Z 21005MPS 9999 OVC010 BKN019CB 01/M01 Q1002 NOSIG167901// RMK QFE734
Loading
Personal Weather Stations






























Interactive Weather Map New forecast layout! Learn more

10-Day Weather Forecast

Advertisements
Track Severe Weather on mobile